createdAt,value
2023-04-23T00:00:35.208Z,11.30
2023-04-23T00:03:10.759Z,11.20
2023-04-23T00:06:28.663Z,11.10
2023-04-23T00:09:01.490Z,11.10
2023-04-23T00:11:39.028Z,11.20
2023-04-23T00:14:10.663Z,11.30
2023-04-23T00:16:49.475Z,11.30
2023-04-23T00:19:20.226Z,11.30
2023-04-23T00:21:49.024Z,11.30
2023-04-23T00:24:19.738Z,11.30
2023-04-23T00:26:48.268Z,11.20
2023-04-23T00:29:16.649Z,11.10
2023-04-23T00:31:45.422Z,11.00
2023-04-23T00:34:13.210Z,11.00
2023-04-23T00:36:41.835Z,10.90
2023-04-23T00:39:19.325Z,10.80
2023-04-23T00:41:49.541Z,10.80
2023-04-23T00:44:18.126Z,10.80
2023-04-23T00:46:49.859Z,10.80
2023-04-23T00:49:22.654Z,10.80
2023-04-23T00:51:49.649Z,10.80
2023-04-23T00:54:26.276Z,10.70
2023-04-23T00:57:00.070Z,10.70
2023-04-23T00:59:51.010Z,10.70
2023-04-23T01:02:20.459Z,10.70
2023-04-23T01:04:51.908Z,10.60
2023-04-23T01:07:20.368Z,10.60
2023-04-23T01:09:51.343Z,10.60
2023-04-23T01:12:21.936Z,10.60
2023-04-23T01:14:51.159Z,10.50
2023-04-23T01:17:18.507Z,10.50
2023-04-23T01:19:47.632Z,10.50
2023-04-23T01:22:18.624Z,10.50
2023-04-23T01:24:50.207Z,10.50
2023-04-23T01:27:22.136Z,10.40
2023-04-23T01:29:50.616Z,10.40
2023-04-23T01:32:18.393Z,10.50
2023-04-23T01:34:49.129Z,10.40
2023-04-23T01:37:19.559Z,10.40
2023-04-23T01:39:49.574Z,10.30
2023-04-23T01:42:19.518Z,10.20
2023-04-23T01:44:49.519Z,10.20
2023-04-23T01:47:19.765Z,10.10
2023-04-23T01:49:49.010Z,10.10
2023-04-23T01:52:17.665Z,10.20
2023-04-23T01:54:45.739Z,10.20
2023-04-23T01:57:22.458Z,10.30
2023-04-23T01:59:53.345Z,10.30
2023-04-23T02:02:22.987Z,10.30
2023-04-23T02:04:53.316Z,10.30
2023-04-23T02:07:21.811Z,10.20
2023-04-23T02:09:50.400Z,10.20
2023-04-23T02:12:20.547Z,10.10
2023-04-23T02:14:49.120Z,10.10
2023-04-23T02:17:20.128Z,10.00
2023-04-23T02:19:54.244Z,10.00
2023-04-23T02:22:26.057Z,9.90
2023-04-23T02:25:04.314Z,9.90
2023-04-23T02:27:34.585Z,9.90
2023-04-23T02:30:11.213Z,9.90
2023-04-23T02:32:43.034Z,9.90
2023-04-23T02:35:18.254Z,10.00
2023-04-23T02:37:48.761Z,9.90
2023-04-23T02:40:17.018Z,9.80
2023-04-23T02:42:45.497Z,9.70
2023-04-23T02:45:14.025Z,9.60
2023-04-23T02:47:43.933Z,9.50
2023-04-23T02:50:20.848Z,9.40
2023-04-23T02:52:50.796Z,9.40
2023-04-23T02:55:22.030Z,9.50
2023-04-23T02:57:58.693Z,9.50
2023-04-23T03:00:30.034Z,9.40
2023-04-23T03:02:58.622Z,9.30
2023-04-23T03:05:30.004Z,9.30
2023-04-23T03:08:00.806Z,9.30
2023-04-23T03:13:14.465Z,9.30
2023-04-23T03:15:51.233Z,9.40
2023-04-23T03:18:21.215Z,9.40
2023-04-23T03:20:50.477Z,9.30
2023-04-23T03:23:18.879Z,9.20
2023-04-23T03:25:46.935Z,9.00
2023-04-23T03:28:15.215Z,8.90
2023-04-23T03:30:42.819Z,9.00
2023-04-23T03:33:14.710Z,9.00
2023-04-23T03:35:52.241Z,9.10
2023-04-23T03:38:19.320Z,9.00
2023-04-23T03:40:48.205Z,9.10
2023-04-23T03:43:15.649Z,9.10
2023-04-23T03:45:47.410Z,9.10
2023-04-23T03:48:14.597Z,8.90
2023-04-23T03:50:48.080Z,9.00
2023-04-23T03:53:25.028Z,9.00
2023-04-23T03:55:53.427Z,9.10
2023-04-23T03:58:23.618Z,9.20
2023-04-23T04:01:01.326Z,9.20
2023-04-23T04:03:29.666Z,9.20
2023-04-23T04:05:58.074Z,9.20
2023-04-23T04:08:26.930Z,9.20
2023-04-23T04:10:59.608Z,9.10
2023-04-23T04:13:28.381Z,9.10
2023-04-23T04:15:59.495Z,9.10
2023-04-23T04:18:28.587Z,9.10
2023-04-23T04:20:58.546Z,9.10
2023-04-23T04:23:34.498Z,9.20
2023-04-23T04:26:05.964Z,9.20
2023-04-23T04:28:39.912Z,9.50
2023-04-23T04:31:16.458Z,9.90
2023-04-23T04:33:46.974Z,10.40
2023-04-23T04:36:17.137Z,10.70
2023-04-23T04:38:44.225Z,11.00
2023-04-23T04:41:13.403Z,11.40
2023-04-23T04:43:44.157Z,11.50
2023-04-23T04:46:13.894Z,11.50
2023-04-23T04:48:42.253Z,11.80
2023-04-23T04:51:12.658Z,12.00
2023-04-23T04:53:41.068Z,12.40
2023-04-23T04:56:18.143Z,13.10
2023-04-23T04:58:49.162Z,13.60
2023-04-23T05:01:19.123Z,14.00
2023-04-23T05:03:49.571Z,14.20
2023-04-23T05:06:19.675Z,14.20
2023-04-23T05:08:50.478Z,14.00
2023-04-23T05:11:25.590Z,13.90
2023-04-23T05:13:55.608Z,14.20
2023-04-23T05:16:25.026Z,14.30
2023-04-23T05:18:54.870Z,14.50
2023-04-23T05:21:23.228Z,14.60
2023-04-23T05:23:52.166Z,14.60
2023-04-23T05:26:23.693Z,14.20
2023-04-23T05:28:52.062Z,13.70
2023-04-23T05:31:29.287Z,13.40
2023-04-23T05:33:58.667Z,13.40
2023-04-23T05:36:30.934Z,13.30
2023-04-23T05:39:00.486Z,13.40
2023-04-23T05:41:28.930Z,13.40
2023-04-23T05:43:59.387Z,13.80
2023-04-23T05:46:28.827Z,14.40
2023-04-23T05:48:59.081Z,15.50
2023-04-23T05:51:30.872Z,16.90
2023-04-23T05:54:01.304Z,18.30
2023-04-23T05:56:29.810Z,19.70
2023-04-23T06:01:31.626Z,22.80
2023-04-23T06:04:02.951Z,23.70
2023-04-23T06:06:33.373Z,24.40
2023-04-23T06:09:00.882Z,24.70
2023-04-23T06:11:31.984Z,25.50
2023-04-23T06:13:59.990Z,25.80
2023-04-23T06:16:48.652Z,25.90
2023-04-23T06:19:19.670Z,25.70
2023-04-23T06:21:51.237Z,26.10
2023-04-23T06:24:19.719Z,26.30
2023-04-23T06:26:49.141Z,26.90
2023-04-23T06:29:18.163Z,27.20
2023-04-23T06:31:46.870Z,27.50
2023-04-23T06:34:17.628Z,27.80
2023-04-23T06:36:46.264Z,28.10
2023-04-23T06:39:17.419Z,28.40
2023-04-23T06:41:45.709Z,29.10
2023-04-23T06:44:15.318Z,28.90
2023-04-23T06:46:45.168Z,28.90
2023-04-23T06:49:12.439Z,28.80
2023-04-23T06:51:41.399Z,28.80
2023-04-23T06:54:11.180Z,28.80
2023-04-23T06:56:40.038Z,28.30
2023-04-23T06:59:08.821Z,27.70
2023-04-23T07:01:37.292Z,27.00
2023-04-23T07:04:05.120Z,26.00
2023-04-23T07:06:36.994Z,25.40
2023-04-23T07:09:05.609Z,24.70
2023-04-23T07:11:42.372Z,24.20
2023-04-23T07:14:09.528Z,23.60
2023-04-23T07:16:38.053Z,23.40
2023-04-23T07:19:07.547Z,23.20
2023-04-23T07:21:38.632Z,23.10
2023-04-23T07:24:08.331Z,23.20
2023-04-23T07:26:40.376Z,23.10
2023-04-23T07:29:10.639Z,22.90
2023-04-23T07:31:42.288Z,22.80
2023-04-23T07:34:14.852Z,22.70
2023-04-23T07:36:43.300Z,22.90
2023-04-23T07:39:12.352Z,22.80
2023-04-23T07:41:41.077Z,22.70
2023-04-23T07:44:09.774Z,22.90
2023-04-23T07:46:37.209Z,23.10
2023-04-23T07:49:04.362Z,23.00
2023-04-23T07:51:34.785Z,22.80
2023-04-23T07:54:05.765Z,23.10
2023-04-23T07:56:32.700Z,23.20
2023-04-23T07:59:01.438Z,23.30
2023-04-23T08:01:30.571Z,23.40
2023-04-23T08:04:02.086Z,23.60
2023-04-23T08:06:35.706Z,23.70
2023-04-23T08:09:10.106Z,23.60
2023-04-23T08:11:39.254Z,23.80
2023-04-23T08:14:07.790Z,23.90
2023-04-23T08:16:39.398Z,24.20
2023-04-23T08:19:10.806Z,24.20
2023-04-23T08:21:38.581Z,24.10
2023-04-23T08:24:08.242Z,24.20
2023-04-23T08:26:38.624Z,24.40
2023-04-23T08:29:11.528Z,24.50
2023-04-23T08:31:46.732Z,24.80
2023-04-23T08:34:15.643Z,24.90
2023-04-23T08:36:48.938Z,24.90
2023-04-23T08:39:20.540Z,24.90
2023-04-23T08:41:55.253Z,25.00
2023-04-23T08:44:28.784Z,25.00
2023-04-23T08:46:59.890Z,24.70
2023-04-23T08:49:39.313Z,24.60
2023-04-23T08:52:25.993Z,24.50
2023-04-23T08:54:57.778Z,24.60
2023-04-23T08:57:25.664Z,24.40
2023-04-23T08:59:55.636Z,24.40
2023-04-23T09:02:25.247Z,24.40
2023-04-23T09:05:05.732Z,24.40
2023-04-23T09:07:47.921Z,24.70
2023-04-23T09:10:18.406Z,24.80
2023-04-23T09:12:49.079Z,24.80
2023-04-23T09:15:17.582Z,24.80
2023-04-23T09:17:53.637Z,24.60
2023-04-23T09:20:22.860Z,24.90
2023-04-23T09:23:02.270Z,25.00
2023-04-23T09:25:31.837Z,24.90
2023-04-23T09:28:07.019Z,25.00
2023-04-23T09:30:50.901Z,25.20
2023-04-23T09:33:21.509Z,25.20
2023-04-23T09:35:56.321Z,24.90
2023-04-23T09:38:27.970Z,24.30
2023-04-23T09:40:58.189Z,23.90
2023-04-23T09:43:30.840Z,24.30
2023-04-23T09:46:03.003Z,24.60
2023-04-23T09:48:49.424Z,24.40
2023-04-23T09:51:16.583Z,24.30
2023-04-23T09:53:49.737Z,24.10
2023-04-23T09:56:17.144Z,24.30
2023-04-23T09:58:47.764Z,24.50
2023-04-23T10:01:16.072Z,24.60
2023-04-23T10:03:52.865Z,24.70
2023-04-23T10:06:42.525Z,24.60
2023-04-23T10:09:29.940Z,24.60
2023-04-23T10:12:09.709Z,24.70
2023-04-23T10:14:51.267Z,24.80
2023-04-23T10:17:22.377Z,24.90
2023-04-23T10:19:54.618Z,25.00
2023-04-23T10:22:25.767Z,24.90
2023-04-23T10:24:59.069Z,24.80
2023-04-23T10:27:52.804Z,24.70
2023-04-23T10:30:23.511Z,24.90
2023-04-23T10:33:01.739Z,24.80
2023-04-23T10:35:38.473Z,24.60
2023-04-23T10:38:07.732Z,24.50
2023-04-23T10:40:42.303Z,24.50
2023-04-23T10:43:12.673Z,24.50
2023-04-23T10:45:42.098Z,24.50
2023-04-23T10:48:12.052Z,24.50
2023-04-23T10:50:58.354Z,24.50
2023-04-23T10:53:33.512Z,24.50
2023-04-23T10:56:10.772Z,24.60
2023-04-23T10:58:50.113Z,24.40
2023-04-23T11:01:19.707Z,24.30
2023-04-23T11:03:49.512Z,24.30
2023-04-23T11:07:09.778Z,24.40
2023-04-23T11:09:55.552Z,24.50
2023-04-23T11:12:28.473Z,24.70
2023-04-23T11:15:03.075Z,24.70
2023-04-23T11:17:40.379Z,24.40
2023-04-23T11:20:17.995Z,24.10
2023-04-23T11:22:53.400Z,24.20
2023-04-23T11:25:27.516Z,24.10
2023-04-23T11:27:59.487Z,24.00
2023-04-23T11:30:34.492Z,23.90
2023-04-23T11:33:13.702Z,24.00
2023-04-23T11:35:41.975Z,24.00
2023-04-23T11:38:12.382Z,23.80
2023-04-23T11:40:40.505Z,23.60
2023-04-23T11:43:11.055Z,23.30
2023-04-23T11:45:42.912Z,23.20
2023-04-23T11:48:13.137Z,23.30
2023-04-23T11:50:44.948Z,23.50
2023-04-23T11:53:12.532Z,23.70
2023-04-23T11:55:44.430Z,23.80
2023-04-23T11:58:12.697Z,23.90
2023-04-23T12:00:49.815Z,24.00
2023-04-23T12:03:19.980Z,23.90
2023-04-23T12:05:57.561Z,23.70
2023-04-23T12:08:33.631Z,23.70
2023-04-23T12:11:03.723Z,23.40
2023-04-23T12:13:51.202Z,23.20
2023-04-23T12:16:49.331Z,23.00
2023-04-23T12:19:34.639Z,23.30
2023-04-23T12:22:04.334Z,23.40
2023-04-23T12:24:47.098Z,23.50
2023-04-23T12:27:16.864Z,23.40
2023-04-23T12:29:48.506Z,23.40
2023-04-23T12:32:16.411Z,23.60
2023-04-23T12:34:54.533Z,23.50
2023-04-23T12:37:27.667Z,23.60
2023-04-23T12:39:57.034Z,23.70
2023-04-23T12:42:24.362Z,23.90
2023-04-23T12:44:55.776Z,23.80
2023-04-23T12:47:25.795Z,23.80
2023-04-23T12:49:59.414Z,24.00
2023-04-23T12:52:27.419Z,24.00
2023-04-23T12:55:00.754Z,24.20
2023-04-23T12:57:32.209Z,24.30
2023-04-23T13:00:03.010Z,24.30
2023-04-23T13:02:30.446Z,24.50
2023-04-23T13:12:03.184Z,24.10
2023-04-23T13:14:32.230Z,23.90
2023-04-23T13:17:03.023Z,23.70
2023-04-23T13:19:41.665Z,23.70
2023-04-23T13:22:12.365Z,23.80
2023-04-23T13:24:50.330Z,23.80
2023-04-23T13:27:20.874Z,23.30
2023-04-23T13:29:56.833Z,23.10
2023-04-23T13:32:25.361Z,23.20
2023-04-23T13:34:53.664Z,23.20
2023-04-23T17:35:43.943Z,24.40
2023-04-23T17:38:11.926Z,24.20
2023-04-23T17:41:50.805Z,24.20
2023-04-23T17:51:58.600Z,23.90
2023-04-23T17:57:27.164Z,24.00
2023-04-23T18:00:04.363Z,19.70
2023-04-23T18:02:40.929Z,16.60
2023-04-23T18:05:18.063Z,14.70
2023-04-23T18:07:48.051Z,13.70
2023-04-23T18:10:18.222Z,13.30
2023-04-23T18:12:46.772Z,13.10
2023-04-23T18:15:15.966Z,13.00
2023-04-23T18:17:52.915Z,12.80
2023-04-23T18:20:25.161Z,12.70
2023-04-23T18:22:56.080Z,12.70
2023-04-23T18:25:26.808Z,12.70
2023-04-23T18:28:02.883Z,12.80
2023-04-23T18:30:31.271Z,12.70
2023-04-23T18:33:57.423Z,12.60
2023-04-23T18:36:34.394Z,12.50
2023-04-23T18:39:05.556Z,12.50
2023-04-23T18:41:36.409Z,12.40
2023-04-23T18:44:04.676Z,12.30
2023-04-23T18:46:33.447Z,12.30
2023-04-23T18:49:54.074Z,12.20
2023-04-23T18:52:22.871Z,12.10
2023-04-23T18:54:52.820Z,12.20
2023-04-23T18:57:23.668Z,12.30
2023-04-23T18:59:51.074Z,12.30
2023-04-23T19:02:34.559Z,12.30
2023-04-23T19:05:03.311Z,12.40
2023-04-23T19:07:38.433Z,12.30
2023-04-23T19:10:10.304Z,12.20
2023-04-23T19:12:38.826Z,12.10
2023-04-23T19:15:08.702Z,12.10
2023-04-23T19:17:43.036Z,12.10
2023-04-23T19:20:14.013Z,12.10
2023-04-23T19:22:44.185Z,12.20
2023-04-23T19:25:15.621Z,12.10
2023-04-23T19:27:43.095Z,12.00
2023-04-23T19:30:17.417Z,12.00
2023-04-23T19:32:47.337Z,12.00
2023-04-23T19:35:16.524Z,12.00
2023-04-23T19:37:45.279Z,12.00
2023-04-23T19:40:21.966Z,12.00
2023-04-23T19:42:53.456Z,12.00
2023-04-23T19:45:26.607Z,12.00
2023-04-23T19:47:56.310Z,12.00
2023-04-23T19:50:26.081Z,12.00
2023-04-23T19:52:56.649Z,12.00
2023-04-23T19:55:32.397Z,11.90
2023-04-23T19:58:00.828Z,11.90
2023-04-23T20:00:34.945Z,12.00
2023-04-23T20:03:03.756Z,12.10
2023-04-23T20:05:33.764Z,12.20
2023-04-23T20:08:10.782Z,12.20
2023-04-23T20:10:40.668Z,12.20
2023-04-23T20:13:17.216Z,12.30
2023-04-23T20:15:44.273Z,12.30
2023-04-23T20:18:13.280Z,12.20
2023-04-23T20:20:45.866Z,12.10
2023-04-23T20:23:14.668Z,12.20
2023-04-23T20:25:51.615Z,12.10
2023-04-23T20:28:18.920Z,12.10
2023-04-23T20:30:56.627Z,12.10
2023-04-23T20:33:24.873Z,12.10
2023-04-23T20:35:54.220Z,12.00
2023-04-23T20:38:25.018Z,11.90
2023-04-23T20:40:53.160Z,11.80
2023-04-23T20:43:23.026Z,11.90
2023-04-23T20:45:55.659Z,12.00
2023-04-23T20:48:27.116Z,11.90
2023-04-23T20:51:03.368Z,11.90
2023-04-23T20:53:33.320Z,12.00
2023-04-23T20:56:02.336Z,12.00
2023-04-23T20:58:40.810Z,11.90
2023-04-23T21:01:13.359Z,11.90
2023-04-23T21:03:42.096Z,11.90
2023-04-23T21:06:12.980Z,11.90
2023-04-23T21:08:43.875Z,11.90
2023-04-23T21:11:20.926Z,11.80
2023-04-23T21:13:49.547Z,11.50
2023-04-23T21:16:19.195Z,11.30
2023-04-23T21:18:53.356Z,11.20
2023-04-23T21:21:30.001Z,11.10
2023-04-23T21:24:04.278Z,11.00
2023-04-23T21:26:43.008Z,11.10
2023-04-23T21:29:21.269Z,10.70
2023-04-23T21:31:53.439Z,10.30
2023-04-23T21:34:30.614Z,10.20
2023-04-23T21:37:00.401Z,10.00
2023-04-23T21:39:32.333Z,9.90
2023-04-23T21:42:03.809Z,10.00
2023-04-23T21:44:36.699Z,10.00
2023-04-23T21:47:05.066Z,10.00
2023-04-23T21:49:46.206Z,10.00
2023-04-23T21:52:17.716Z,10.10
2023-04-23T21:54:45.005Z,10.20
2023-04-23T21:57:14.759Z,10.30
2023-04-23T21:59:51.899Z,10.40
2023-04-23T22:02:24.803Z,10.50
2023-04-23T22:04:54.272Z,10.50
2023-04-23T22:07:24.701Z,10.50
2023-04-23T22:10:01.723Z,10.50
2023-04-23T22:12:38.675Z,10.60
2023-04-23T22:15:16.653Z,10.60
2023-04-23T22:17:51.130Z,10.60
2023-04-23T22:20:26.367Z,10.50
2023-04-23T22:22:55.570Z,10.50
2023-04-23T22:25:32.850Z,10.50
2023-04-23T22:28:01.654Z,10.40
2023-04-23T22:30:31.180Z,10.30
2023-04-23T22:32:59.923Z,10.30
2023-04-23T22:35:29.763Z,10.30
2023-04-23T22:38:07.260Z,10.30
2023-04-23T22:43:27.274Z,10.20
2023-04-23T22:45:57.749Z,10.10
2023-04-23T22:48:28.435Z,10.20
2023-04-23T22:51:02.147Z,10.20
2023-04-23T22:53:40.100Z,10.10
2023-04-23T22:56:09.593Z,10.00
2023-04-23T22:58:46.169Z,10.00
2023-04-23T23:01:14.897Z,10.00
2023-04-23T23:03:51.708Z,10.00
2023-04-23T23:06:21.066Z,9.90
2023-04-23T23:08:51.207Z,9.90
2023-04-23T23:11:26.762Z,9.90
2023-04-23T23:13:54.753Z,9.90
2023-04-23T23:16:23.220Z,9.90
2023-04-23T23:18:53.823Z,9.80
2023-04-23T23:21:24.982Z,9.80
2023-04-23T23:23:55.192Z,9.70
2023-04-23T23:26:31.882Z,9.70
2023-04-23T23:29:10.860Z,9.60
2023-04-23T23:31:42.310Z,9.70
2023-04-23T23:34:19.275Z,9.60
2023-04-23T23:36:49.994Z,9.70
2023-04-23T23:39:20.760Z,9.60
2023-04-23T23:41:50.032Z,9.50
2023-04-23T23:44:18.296Z,9.50
2023-04-23T23:46:56.330Z,9.50
2023-04-23T23:49:27.310Z,9.60
2023-04-23T23:51:58.182Z,9.60
2023-04-23T23:54:30.566Z,9.60
2023-04-23T23:57:01.208Z,9.50
2023-04-23T23:59:31.460Z,9.50
